Time;durP1;ratioP1;P1;durP2;ratioP2;P2;SDS_P1;SDS_P2;PMS_P1;PMS_P2;Temp;Humidity;BMP_temperature;BMP_pressure;BME280_temperature;BME280_humidity;BME280_pressure;Samples;Min_cycle;Max_cycle;Signal;HPM_P1;HPM_P2
2021/05/28 00:00:39;;;;;;;4.50;3.77;;;;;;;;;;5093679;28;20230;-76
2021/05/28 00:03:06;;;;;;;4.53;3.50;;;;;;;;;;5092967;28;20285;-75
2021/05/28 00:05:33;;;;;;;7.23;3.73;;;;;;;;;;5091058;28;20624;-75
2021/05/28 00:07:59;;;;;;;6.50;4.47;;;;;;;;;;5078690;28;20242;-76
2021/05/28 00:10:28;;;;;;;4.87;4.37;;;;;;;;;;5080322;28;20277;-75
2021/05/28 00:12:55;;;;;;;4.57;4.00;;;;;;;;;;5096104;28;20297;-75
2021/05/28 00:15:21;;;;;;;6.20;4.87;;;;;;;;;;5093209;28;20235;-75
2021/05/28 00:17:48;;;;;;;4.73;4.17;;;;;;;;;;5084888;28;20302;-75
2021/05/28 00:20:15;;;;;;;4.73;4.23;;;;;;;;;;5093057;28;20317;-75
2021/05/28 00:22:42;;;;;;;5.37;4.20;;;;;;;;;;5092604;28;20240;-75
2021/05/28 00:25:11;;;;;;;5.13;4.10;;;;;;;;;;5093545;28;20328;-75
2021/05/28 00:27:38;;;;;;;5.73;4.00;;;;;;;;;;5074993;28;20312;-75
2021/05/28 00:30:06;;;;;;;5.43;3.93;;;;;;;;;;5092473;28;20290;-75
2021/05/28 00:32:33;;;;;;;4.13;3.73;;;;;;;;;;5092778;28;20230;-76
2021/05/28 00:35:00;;;;;;;4.80;4.00;;;;;;;;;;5092976;28;20285;-76
2021/05/28 00:37:27;;;;;;;5.20;3.77;;;;;;;;;;5092619;28;21088;-75
2021/05/28 00:39:53;;;;;;;6.23;4.30;;;;;;;;;;5061917;28;20285;-75
2021/05/28 00:42:21;;;;;;;5.17;4.10;;;;;;;;;;5077159;28;20225;-75
2021/05/28 00:44:48;;;;;;;4.67;4.00;;;;;;;;;;5091506;28;20720;-75
2021/05/28 00:47:15;;;;;;;4.53;4.00;;;;;;;;;;5092867;28;20325;-76
2021/05/28 00:49:41;;;;;;;4.73;4.23;;;;;;;;;;5091964;28;20293;-76
2021/05/28 00:52:08;;;;;;;6.13;4.70;;;;;;;;;;5078959;28;20730;-75
2021/05/28 00:54:35;;;;;;;5.03;4.30;;;;;;;;;;5084369;28;20665;-75
2021/05/28 00:57:02;;;;;;;6.00;4.30;;;;;;;;;;5074904;28;20621;-75
2021/05/28 00:59:28;;;;;;;5.93;3.97;;;;;;;;;;5092154;28;20203;-75
2021/05/28 01:01:56;;;;;;;7.83;4.33;;;;;;;;;;5092071;28;20688;-75
2021/05/28 01:04:23;;;;;;;5.57;4.10;;;;;;;;;;5092140;28;20699;-75
2021/05/28 01:06:50;;;;;;;4.40;3.93;;;;;;;;;;5092103;28;20218;-75
2021/05/28 01:09:16;;;;;;;5.50;4.00;;;;;;;;;;5085759;28;20207;-75
2021/05/28 01:11:43;;;;;;;4.50;4.10;;;;;;;;;;5071944;28;20296;-75
2021/05/28 01:14:10;;;;;;;4.53;4.13;;;;;;;;;;5072103;28;20746;-75
2021/05/28 01:16:37;;;;;;;5.20;4.23;;;;;;;;;;5087623;28;20285;-75
2021/05/28 01:19:05;;;;;;;4.70;4.30;;;;;;;;;;5089874;28;20294;-76
2021/05/28 01:21:32;;;;;;;4.70;4.20;;;;;;;;;;5092532;28;20221;-75
2021/05/28 01:24:00;;;;;;;5.30;4.20;;;;;;;;;;5091918;28;20233;-75
2021/05/28 01:26:27;;;;;;;6.97;4.50;;;;;;;;;;5092102;28;20310;-75
2021/05/28 01:28:54;;;;;;;4.50;4.10;;;;;;;;;;5090913;28;20229;-75
2021/05/28 01:31:21;;;;;;;5.53;4.33;;;;;;;;;;5092110;28;20287;-76
2021/05/28 01:33:48;;;;;;;4.73;4.13;;;;;;;;;;5091449;28;20214;-75
2021/05/28 01:36:15;;;;;;;4.60;4.10;;;;;;;;;;5091810;28;20191;-75
2021/05/28 01:38:42;;;;;;;4.80;4.30;;;;;;;;;;5091819;28;20328;-75
2021/05/28 01:41:10;;;;;;;5.87;4.17;;;;;;;;;;5091733;28;20285;-75
2021/05/28 01:43:36;;;;;;;5.77;4.57;;;;;;;;;;5091909;28;20232;-75
2021/05/28 01:46:03;;;;;;;4.97;3.80;;;;;;;;;;5091406;28;20315;-76
2021/05/28 01:48:30;;;;;;;4.87;3.90;;;;;;;;;;5091220;28;20289;-75
2021/05/28 01:50:57;;;;;;;5.33;4.37;;;;;;;;;;5091647;28;20678;-75
2021/05/28 01:53:25;;;;;;;4.83;4.10;;;;;;;;;;5091432;28;20289;-75
2021/05/28 01:55:52;;;;;;;5.57;4.60;;;;;;;;;;5091104;28;20240;-76
2021/05/28 01:58:21;;;;;;;4.97;4.47;;;;;;;;;;5090978;28;20248;-74
2021/05/28 02:00:48;;;;;;;7.00;4.47;;;;;;;;;;5086106;28;20705;-75
2021/05/28 02:03:15;;;;;;;7.07;4.43;;;;;;;;;;5078460;28;20665;-75
2021/05/28 02:05:42;;;;;;;4.80;4.20;;;;;;;;;;5071428;28;20230;-76
2021/05/28 02:08:08;;;;;;;4.97;4.47;;;;;;;;;;5080470;28;20234;-75
2021/05/28 02:10:35;;;;;;;6.73;4.63;;;;;;;;;;5073001;28;20288;-76
2021/05/28 02:13:02;;;;;;;5.57;4.40;;;;;;;;;;5091508;28;20316;-75
2021/05/28 02:15:30;;;;;;;4.90;4.37;;;;;;;;;;5082597;28;20197;-76
2021/05/28 02:17:57;;;;;;;5.00;4.50;;;;;;;;;;5075540;28;20283;-75
2021/05/28 02:20:25;;;;;;;5.43;4.30;;;;;;;;;;5094291;28;20284;-75
2021/05/28 02:22:52;;;;;;;6.70;4.57;;;;;;;;;;5095860;28;20230;-75
2021/05/28 02:25:19;;;;;;;5.53;4.43;;;;;;;;;;5085419;28;20284;-75
2021/05/28 02:27:46;;;;;;;5.40;4.60;;;;;;;;;;5088736;28;20221;-75
2021/05/28 02:30:14;;;;;;;7.40;4.70;;;;;;;;;;5095391;28;20236;-75
2021/05/28 02:32:42;;;;;;;6.27;4.77;;;;;;;;;;5095418;28;20237;-76
2021/05/28 02:35:10;;;;;;;5.20;4.70;;;;;;;;;;5095302;28;20203;-75
2021/05/28 02:37:36;;;;;;;5.90;4.70;;;;;;;;;;5068912;28;20293;-75
2021/05/28 02:40:04;;;;;;;6.23;4.97;;;;;;;;;;5075316;28;20292;-74
2021/05/28 02:42:31;;;;;;;5.47;4.90;;;;;;;;;;5075127;28;20232;-75
2021/05/28 02:44:57;;;;;;;5.77;5.10;;;;;;;;;;5075184;28;20288;-75
2021/05/28 02:47:24;;;;;;;5.83;5.20;;;;;;;;;;5074722;28;20320;-76
2021/05/28 02:49:52;;;;;;;5.70;5.10;;;;;;;;;;5074859;28;20302;-75
2021/05/28 02:52:18;;;;;;;5.50;5.00;;;;;;;;;;5074623;28;20285;-75
2021/05/28 02:54:45;;;;;;;6.13;4.90;;;;;;;;;;5074729;28;20336;-75
2021/05/28 02:57:13;;;;;;;5.53;4.97;;;;;;;;;;5082980;28;20724;-76
2021/05/28 02:59:39;;;;;;;6.47;4.90;;;;;;;;;;5094807;28;20307;-75
2021/05/28 03:02:07;;;;;;;5.63;5.00;;;;;;;;;;5093139;28;20857;-76
2021/05/28 03:04:33;;;;;;;5.93;4.50;;;;;;;;;;5074484;28;20593;-75
2021/05/28 03:07:02;;;;;;;5.30;4.80;;;;;;;;;;5074517;28;20261;-76
2021/05/28 03:09:29;;;;;;;4.33;3.93;;;;;;;;;;5091409;28;20765;-75
2021/05/28 03:11:56;;;;;;;5.03;4.50;;;;;;;;;;5094618;28;20657;-75
2021/05/28 03:14:23;;;;;;;5.67;4.87;;;;;;;;;;5076425;28;20294;-75
2021/05/28 03:16:49;;;;;;;5.50;4.80;;;;;;;;;;5084157;28;20292;-75
2021/05/28 03:19:22;;;;;;;6.37;4.90;;;;;;;;;;5094749;28;20291;-75
2021/05/28 03:24:35;;;;;;;5.90;5.23;;;;;;;;;;5094471;28;20202;-75
2021/05/28 03:27:02;;;;;;;7.87;5.60;;;;;;;;;;5093568;28;20312;-75
2021/05/28 03:29:29;;;;;;;5.70;5.20;;;;;;;;;;5093899;28;20292;-75
2021/05/28 03:31:56;;;;;;;6.03;5.03;;;;;;;;;;5094211;28;20197;-75
2021/05/28 03:34:22;;;;;;;5.67;4.90;;;;;;;;;;5094371;28;20240;-75
2021/05/28 03:36:50;;;;;;;6.47;5.57;;;;;;;;;;5090765;28;20625;-76
2021/05/28 03:39:17;;;;;;;6.23;4.97;;;;;;;;;;5094202;28;20553;-74
2021/05/28 03:41:44;;;;;;;6.57;5.03;;;;;;;;;;5094060;28;20246;-75
2021/05/28 03:44:11;;;;;;;8.63;5.40;;;;;;;;;;5094100;28;20231;-75
2021/05/28 03:46:38;;;;;;;6.90;5.60;;;;;;;;;;5093887;28;20320;-75
2021/05/28 03:49:04;;;;;;;7.10;5.37;;;;;;;;;;5094135;28;20296;-75
2021/05/28 03:51:31;;;;;;;6.20;5.43;;;;;;;;;;5093938;28;20296;-76
2021/05/28 03:53:58;;;;;;;7.03;5.67;;;;;;;;;;5093141;28;20233;-75
2021/05/28 03:56:24;;;;;;;8.57;5.93;;;;;;;;;;5082885;28;20235;-75
2021/05/28 03:58:52;;;;;;;8.27;5.67;;;;;;;;;;5093756;28;20264;-75
2021/05/28 04:01:19;;;;;;;6.03;5.43;;;;;;;;;;5092251;28;20292;-75
2021/05/28 04:03:46;;;;;;;7.90;5.93;;;;;;;;;;5084651;28;20723;-75
2021/05/28 04:06:12;;;;;;;8.30;5.87;;;;;;;;;;5093555;28;20708;-75
2021/05/28 04:08:39;;;;;;;6.20;5.53;;;;;;;;;;5091206;28;20197;-75
2021/05/28 04:11:06;;;;;;;7.10;6.40;;;;;;;;;;5093758;28;20287;-75
2021/05/28 04:13:33;;;;;;;6.70;6.00;;;;;;;;;;5093031;28;20258;-75
2021/05/28 04:16:01;;;;;;;7.70;5.80;;;;;;;;;;5085769;28;20195;-76
2021/05/28 04:18:27;;;;;;;6.97;5.87;;;;;;;;;;5093798;28;20717;-75
2021/05/28 04:20:54;;;;;;;6.63;5.93;;;;;;;;;;5075419;28;20568;-75
2021/05/28 04:23:21;;;;;;;6.70;6.10;;;;;;;;;;5093143;28;20226;-75
2021/05/28 04:25:48;;;;;;;6.63;5.70;;;;;;;;;;5092021;28;20226;-75
2021/05/28 04:28:14;;;;;;;6.60;5.87;;;;;;;;;;5073404;28;20824;-76
2021/05/28 04:30:41;;;;;;;7.33;6.03;;;;;;;;;;5066849;28;20744;-75
2021/05/28 04:33:09;;;;;;;6.63;5.93;;;;;;;;;;5081405;28;20638;-76
2021/05/28 04:35:36;;;;;;;7.23;6.00;;;;;;;;;;5072988;28;20292;-75
2021/05/28 04:38:03;;;;;;;8.80;6.20;;;;;;;;;;5072329;28;20738;-75
2021/05/28 04:40:31;;;;;;;9.27;6.20;;;;;;;;;;5079765;28;20302;-75
2021/05/28 04:42:58;;;;;;;6.60;5.93;;;;;;;;;;5091780;28;20226;-75
2021/05/28 04:45:25;;;;;;;6.80;6.10;;;;;;;;;;5086822;28;20624;-76
2021/05/28 04:47:52;;;;;;;8.40;6.20;;;;;;;;;;5089921;28;20308;-75
2021/05/28 04:50:20;;;;;;;7.93;6.07;;;;;;;;;;5074990;28;20287;-75
2021/05/28 04:52:47;;;;;;;7.37;5.87;;;;;;;;;;5092496;28;20194;-76
2021/05/28 04:55:14;;;;;;;6.77;5.30;;;;;;;;;;5092263;28;20288;-75
2021/05/28 04:57:41;;;;;;;7.20;5.77;;;;;;;;;;5092721;28;20223;-75
2021/05/28 05:00:09;;;;;;;8.07;5.80;;;;;;;;;;5078685;28;20746;-75
2021/05/28 05:02:36;;;;;;;7.20;5.60;;;;;;;;;;5072537;28;20230;-76
2021/05/28 05:05:03;;;;;;;7.50;5.57;;;;;;;;;;5072620;28;20290;-75
2021/05/28 05:07:30;;;;;;;6.43;5.53;;;;;;;;;;5072106;28;20222;-76
2021/05/28 05:09:57;;;;;;;6.70;6.00;;;;;;;;;;5071833;28;20286;-76
2021/05/28 05:12:24;;;;;;;6.37;5.33;;;;;;;;;;5085885;28;20234;-76
2021/05/28 05:14:51;;;;;;;7.07;5.47;;;;;;;;;;5092503;28;20194;-76
2021/05/28 05:17:17;;;;;;;6.33;5.47;;;;;;;;;;5092294;28;20289;-76
2021/05/28 05:19:44;;;;;;;6.20;5.60;;;;;;;;;;5092407;28;20390;-76
2021/05/28 05:22:11;;;;;;;5.90;5.30;;;;;;;;;;5090625;28;20285;-76
2021/05/28 05:24:39;;;;;;;6.10;5.13;;;;;;;;;;5084466;28;20282;-75
2021/05/28 05:27:06;;;;;;;6.37;5.33;;;;;;;;;;5083023;28;20283;-77
2021/05/28 05:29:33;;;;;;;6.17;5.07;;;;;;;;;;5072890;28;20716;-76
2021/05/28 05:31:59;;;;;;;5.20;4.70;;;;;;;;;;5079912;28;20632;-77
2021/05/28 05:34:26;;;;;;;7.17;5.03;;;;;;;;;;5074456;28;20223;-77
2021/05/28 05:36:53;;;;;;;5.57;4.60;;;;;;;;;;5065905;28;20270;-77
2021/05/28 05:39:21;;;;;;;5.23;4.40;;;;;;;;;;5090677;28;20237;-76
2021/05/28 05:41:49;;;;;;;6.60;4.40;;;;;;;;;;5090458;28;20257;-75
2021/05/28 05:44:16;;;;;;;4.50;4.10;;;;;;;;;;5081475;28;20737;-76
2021/05/28 05:46:42;;;;;;;4.87;3.80;;;;;;;;;;5078321;28;20253;-75
2021/05/28 05:49:09;;;;;;;4.77;3.80;;;;;;;;;;5076172;28;20285;-75
2021/05/28 05:51:36;;;;;;;4.57;4.00;;;;;;;;;;5070607;28;20195;-76
2021/05/28 05:54:02;;;;;;;5.87;4.00;;;;;;;;;;5061061;28;20756;-75
2021/05/28 05:56:29;;;;;;;5.20;4.10;;;;;;;;;;5089510;28;20281;-75
2021/05/28 05:58:57;;;;;;;5.67;4.10;;;;;;;;;;5083143;28;20829;-77
2021/05/28 06:01:23;;;;;;;4.97;3.90;;;;;;;;;;5087225;28;20325;-77
2021/05/28 06:03:51;;;;;;;5.87;3.97;;;;;;;;;;5088331;28;20335;-77
2021/05/28 06:06:17;;;;;;;4.40;3.47;;;;;;;;;;5082064;28;20247;-78
2021/05/28 06:08:44;;;;;;;4.03;3.63;;;;;;;;;;5082338;28;20297;-77
2021/05/28 06:11:11;;;;;;;5.40;3.50;;;;;;;;;;5079295;28;20190;-76
2021/05/28 06:13:38;;;;;;;3.97;3.53;;;;;;;;;;5086717;28;20222;-77
2021/05/28 06:16:06;;;;;;;4.17;3.43;;;;;;;;;;5079340;28;20751;-77
2021/05/28 06:18:35;;;;;;;3.80;3.40;;;;;;;;;;5070600;28;20282;-76
2021/05/28 06:21:02;;;;;;;4.27;3.30;;;;;;;;;;5088118;28;20661;-76
2021/05/28 06:23:28;;;;;;;4.40;3.30;;;;;;;;;;5084333;28;20222;-76
2021/05/28 06:25:57;;;;;;;4.47;3.10;;;;;;;;;;5071556;28;20221;-76
2021/05/28 06:28:26;;;;;;;4.17;3.10;;;;;;;;;;5087346;28;20579;-77
2021/05/28 06:30:54;;;;;;;3.13;2.70;;;;;;;;;;5087243;28;20285;-77
2021/05/28 06:33:21;;;;;;;3.80;2.33;;;;;;;;;;5085582;28;20294;-78
2021/05/28 06:35:50;;;;;;;5.07;2.60;;;;;;;;;;5081313;28;20688;-77
2021/05/28 06:38:17;;;;;;;2.83;2.30;;;;;;;;;;5085196;28;20225;-77
2021/05/28 06:40:44;;;;;;;4.15;2.20;;;;;;;;;;5081130;28;20241;-77
2021/05/28 06:43:10;;;;;;;3.35;2.17;;;;;;;;;;5086825;28;20226;-77
2021/05/28 06:45:37;;;;;;;4.00;2.00;;;;;;;;;;5083874;28;20273;-78
2021/05/28 06:48:04;;;;;;;2.70;1.98;;;;;;;;;;5083124;28;20318;-77
2021/05/28 06:50:32;;;;;;;3.22;1.88;;;;;;;;;;5075576;28;22046;-77
2021/05/28 06:53:02;;;;;;;4.03;1.98;;;;;;;;;;5085456;28;20817;-78
2021/05/28 06:55:28;;;;;;;2.88;1.98;;;;;;;;;;5079076;28;20203;-77
2021/05/28 06:57:56;;;;;;;3.17;2.05;;;;;;;;;;5083263;28;20222;-77
2021/05/28 07:00:23;;;;;;;2.85;1.88;;;;;;;;;;5086110;28;20807;-78
2021/05/28 07:02:54;;;;;;;2.30;1.80;;;;;;;;;;5082217;28;20281;-78
2021/05/28 07:05:23;;;;;;;3.95;2.00;;;;;;;;;;5086695;28;20286;-78
2021/05/28 07:07:50;;;;;;;2.90;1.88;;;;;;;;;;5086449;28;20219;-78
2021/05/28 07:10:17;;;;;;;3.10;1.75;;;;;;;;;;5085017;28;20233;-78
2021/05/28 07:12:44;;;;;;;2.53;1.60;;;;;;;;;;5091531;28;20194;-78
2021/05/28 07:15:12;;;;;;;3.38;1.73;;;;;;;;;;5092706;28;20315;-78
2021/05/28 07:17:38;;;;;;;2.92;1.67;;;;;;;;;;5086066;28;20581;-78
2021/05/28 07:20:06;;;;;;;3.10;1.83;;;;;;;;;;5089924;28;20282;-78
2021/05/28 07:22:33;;;;;;;2.03;1.75;;;;;;;;;;5081003;28;20233;-76
2021/05/28 07:25:01;;;;;;;2.08;1.88;;;;;;;;;;5084083;28;20283;-77
2021/05/28 07:27:28;;;;;;;2.53;1.90;;;;;;;;;;5088109;28;20254;-77
2021/05/28 07:29:55;;;;;;;2.30;1.75;;;;;;;;;;5082256;28;20289;-77
2021/05/28 07:32:22;;;;;;;3.55;1.75;;;;;;;;;;5082403;28;20608;-77
2021/05/28 07:34:49;;;;;;;2.80;1.65;;;;;;;;;;5093849;28;20289;-77
2021/05/28 07:37:16;;;;;;;2.15;1.63;;;;;;;;;;5092350;28;20222;-77
2021/05/28 07:39:43;;;;;;;2.00;1.80;;;;;;;;;;5079157;28;20218;-78
2021/05/28 07:42:15;;;;;;;2.92;1.83;;;;;;;;;;5089850;28;20202;-78
2021/05/28 07:44:42;;;;;;;2.50;1.60;;;;;;;;;;5089357;28;20195;-77
2021/05/28 07:47:08;;;;;;;2.85;1.70;;;;;;;;;;5089626;28;20310;-78
2021/05/28 07:49:35;;;;;;;2.88;1.58;;;;;;;;;;5078230;28;20286;-77
2021/05/28 07:52:02;;;;;;;1.90;1.70;;;;;;;;;;5089405;28;20336;-78
2021/05/28 07:54:28;;;;;;;2.95;1.80;;;;;;;;;;5072856;28;21621;-79
2021/05/28 07:56:55;;;;;;;2.13;1.90;;;;;;;;;;5079996;28;20277;-77
2021/05/28 07:59:23;;;;;;;3.00;1.80;;;;;;;;;;5083216;28;20291;-77
2021/05/28 08:01:49;;;;;;;2.42;2.22;;;;;;;;;;5081742;28;20657;-77
2021/05/28 08:04:16;;;;;;;3.17;2.03;;;;;;;;;;5082436;28;20281;-78
2021/05/28 08:06:43;;;;;;;2.50;2.30;;;;;;;;;;5079295;28;20279;-78
2021/05/28 08:09:10;;;;;;;1.98;1.88;;;;;;;;;;5079150;28;20290;-78
2021/05/28 08:11:36;;;;;;;2.78;2.00;;;;;;;;;;5080986;28;20282;-78
2021/05/28 08:14:03;;;;;;;2.20;2.00;;;;;;;;;;5081137;28;20225;-77
2021/05/28 08:16:31;;;;;;;3.25;2.13;;;;;;;;;;5082379;28;20379;-78
2021/05/28 08:18:58;;;;;;;2.58;2.00;;;;;;;;;;5088276;28;20289;-77
2021/05/28 08:21:25;;;;;;;3.03;1.90;;;;;;;;;;5081523;28;20290;-77
2021/05/28 08:23:51;;;;;;;2.33;1.98;;;;;;;;;;5081540;28;20236;-78
2021/05/28 08:26:18;;;;;;;2.47;2.13;;;;;;;;;;5079505;28;20195;-78
2021/05/28 08:28:45;;;;;;;3.28;2.00;;;;;;;;;;5082829;28;20285;-78
2021/05/28 08:31:11;;;;;;;3.63;1.98;;;;;;;;;;5081031;28;20226;-77
2021/05/28 08:33:39;;;;;;;2.35;1.90;;;;;;;;;;5088129;28;20690;-78
2021/05/28 08:36:07;;;;;;;2.08;1.90;;;;;;;;;;5083677;28;20218;-78
2021/05/28 08:38:34;;;;;;;4.78;2.08;;;;;;;;;;5081313;28;20261;-79
2021/05/28 08:41:01;;;;;;;4.18;1.60;;;;;;;;;;5082795;28;20257;-78
2021/05/28 08:43:27;;;;;;;3.00;1.50;;;;;;;;;;5091073;28;20273;-78
2021/05/28 08:45:55;;;;;;;2.50;1.38;;;;;;;;;;5075518;28;20230;-78
2021/05/28 08:48:21;;;;;;;2.28;1.58;;;;;;;;;;5070205;28;20219;-78
2021/05/28 08:50:50;;;;;;;2.13;1.35;;;;;;;;;;5076897;28;20766;-78
2021/05/28 08:53:17;;;;;;;2.05;1.50;;;;;;;;;;5081750;28;20282;-78
2021/05/28 08:55:44;;;;;;;5.80;1.50;;;;;;;;;;5083744;28;20222;-78
2021/05/28 08:58:12;;;;;;;1.50;1.23;;;;;;;;;;5088734;28;20190;-78
2021/05/28 09:00:39;;;;;;;3.20;1.60;;;;;;;;;;5079353;28;20341;-78
2021/05/28 09:03:23;;;;;;;1.55;1.33;;;;;;;;;;5080005;28;20216;-77
2021/05/28 09:05:55;;;;;;;1.77;1.10;;;;;;;;;;5087860;28;20670;-78
2021/05/28 09:08:25;;;;;;;3.33;1.20;;;;;;;;;;5078970;28;20276;-78
2021/05/28 09:10:53;;;;;;;2.95;1.23;;;;;;;;;;5084269;28;20647;-77
2021/05/28 09:13:23;;;;;;;2.65;1.10;;;;;;;;;;5074600;28;20698;-78
2021/05/28 09:15:51;;;;;;;2.25;1.40;;;;;;;;;;5077443;28;20199;-79
2021/05/28 09:18:18;;;;;;;1.83;1.30;;;;;;;;;;5080325;28;20281;-79
2021/05/28 09:20:48;;;;;;;2.38;1.30;;;;;;;;;;5080800;28;20290;-78
2021/05/28 09:23:17;;;;;;;5.03;1.40;;;;;;;;;;5084371;28;20277;-78
2021/05/28 09:25:57;;;;;;;2.78;1.40;;;;;;;;;;5078932;28;20269;-78
2021/05/28 09:28:25;;;;;;;2.58;1.50;;;;;;;;;;5087277;28;20316;-78
2021/05/28 09:30:56;;;;;;;2.78;1.30;;;;;;;;;;5083564;28;20233;-79
2021/05/28 09:33:23;;;;;;;1.42;1.10;;;;;;;;;;5080676;28;20226;-78
2021/05/28 09:35:50;;;;;;;4.40;1.40;;;;;;;;;;5086098;28;20230;-78
2021/05/28 09:38:27;;;;;;;3.40;1.25;;;;;;;;;;5083079;28;20253;-78
2021/05/28 09:40:53;;;;;;;1.55;1.10;;;;;;;;;;5084707;28;20281;-79
2021/05/28 09:43:23;;;;;;;2.15;1.30;;;;;;;;;;5082812;28;20229;-78
2021/05/28 09:45:50;;;;;;;2.10;1.23;;;;;;;;;;5076296;28;20702;-79
2021/05/28 09:48:25;;;;;;;1.45;1.20;;;;;;;;;;5081889;28;20868;-79
2021/05/28 09:50:53;;;;;;;1.40;1.30;;;;;;;;;;5085154;28;20206;-78
2021/05/28 09:53:28;;;;;;;2.53;1.58;;;;;;;;;;5091038;28;20627;-79
2021/05/28 09:55:55;;;;;;;2.00;1.17;;;;;;;;;;5087448;28;20243;-78
2021/05/28 09:58:22;;;;;;;1.98;1.30;;;;;;;;;;5078343;28;20245;-78
2021/05/28 10:00:49;;;;;;;3.15;1.52;;;;;;;;;;5089992;28;20197;-78
2021/05/28 10:03:18;;;;;;;2.38;1.30;;;;;;;;;;5084187;28;20286;-78
2021/05/28 10:05:47;;;;;;;1.65;1.17;;;;;;;;;;5081493;28;20205;-78
2021/05/28 10:08:14;;;;;;;3.13;1.20;;;;;;;;;;5083770;28;20695;-78
2021/05/28 10:10:43;;;;;;;3.92;1.33;;;;;;;;;;5084798;28;20294;-77
2021/05/28 10:13:13;;;;;;;3.92;1.50;;;;;;;;;;5079968;28;20238;-77
2021/05/28 10:15:40;;;;;;;1.60;1.25;;;;;;;;;;5084273;28;20209;-79
2021/05/28 10:18:08;;;;;;;1.27;1.00;;;;;;;;;;5086482;28;20217;-78
2021/05/28 10:20:35;;;;;;;2.35;1.20;;;;;;;;;;5077115;28;20202;-78
2021/05/28 10:23:02;;;;;;;3.28;1.30;;;;;;;;;;5085269;28;20282;-77
2021/05/28 10:25:28;;;;;;;2.45;1.30;;;;;;;;;;5078794;28;20295;-79
2021/05/28 10:27:57;;;;;;;3.78;2.25;;;;;;;;;;5083606;28;20919;-78
2021/05/28 10:30:25;;;;;;;9.43;5.72;;;;;;;;;;5084159;28;20205;-78
2021/05/28 10:33:10;;;;;;;2.50;1.52;;;;;;;;;;5076078;28;20206;-78
2021/05/28 10:35:40;;;;;;;2.13;1.20;;;;;;;;;;5078510;28;20198;-77
2021/05/28 10:38:33;;;;;;;2.80;1.30;;;;;;;;;;5081490;28;20309;-78
2021/05/28 10:41:14;;;;;;;1.70;1.15;;;;;;;;;;5087649;28;20293;-78
2021/05/28 10:44:00;;;;;;;2.55;1.33;;;;;;;;;;5083870;28;20234;-78
2021/05/28 10:46:27;;;;;;;1.23;0.90;;;;;;;;;;5091186;28;20202;-78
2021/05/28 10:49:15;;;;;;;1.55;1.05;;;;;;;;;;5087661;28;20202;-78
2021/05/28 10:52:00;;;;;;;1.60;1.20;;;;;;;;;;5084840;28;20238;-78
2021/05/28 10:54:28;;;;;;;1.83;1.48;;;;;;;;;;5078216;28;20718;-78
2021/05/28 10:56:55;;;;;;;1.88;1.52;;;;;;;;;;5085939;28;20277;-78
2021/05/28 10:59:23;;;;;;;2.88;1.40;;;;;;;;;;5090622;28;20294;-78
2021/05/28 11:01:53;;;;;;;2.40;1.50;;;;;;;;;;5085752;28;20271;-77
2021/05/28 11:04:23;;;;;;;1.40;1.27;;;;;;;;;;5095177;28;20205;-78
2021/05/28 11:07:08;;;;;;;5.05;1.67;;;;;;;;;;5078523;28;20203;-79
2021/05/28 11:09:36;;;;;;;1.20;1.10;;;;;;;;;;5083651;28;20289;-80
2021/05/28 11:12:03;;;;;;;3.47;1.88;;;;;;;;;;5095054;28;20206;-80
2021/05/28 11:14:33;;;;;;;4.13;1.30;;;;;;;;;;5095023;28;20289;-78
2021/05/28 11:17:18;;;;;;;2.13;1.30;;;;;;;;;;5074776;28;20242;-79
2021/05/28 11:19:46;;;;;;;1.95;1.35;;;;;;;;;;5074640;28;20207;-81
2021/05/28 11:22:16;;;;;;;1.33;1.10;;;;;;;;;;5075002;28;20206;-83
2021/05/28 11:24:43;;;;;;;1.80;1.27;;;;;;;;;;5077016;28;20214;-80
2021/05/28 11:27:13;;;;;;;1.90;1.00;;;;;;;;;;5088749;28;20227;-78
2021/05/28 11:29:41;;;;;;;1.98;1.23;;;;;;;;;;5081556;28;20285;-78
2021/05/28 11:32:27;;;;;;;2.85;1.63;;;;;;;;;;5087623;28;20692;-79
2021/05/28 11:35:08;;;;;;;5.80;2.10;;;;;;;;;;5090466;28;20226;-79
2021/05/28 11:37:38;;;;;;;2.42;1.40;;;;;;;;;;5091784;28;20276;-79
2021/05/28 11:40:12;;;;;;;2.42;1.35;;;;;;;;;;5094099;28;20289;-82
2021/05/28 11:42:40;;;;;;;2.88;1.15;;;;;;;;;;5088529;28;20197;-82
2021/05/28 11:45:08;;;;;;;2.45;1.20;;;;;;;;;;5084339;28;20208;-82
2021/05/28 11:47:36;;;;;;;2.95;1.30;;;;;;;;;;5084196;28;20261;-81
2021/05/28 11:50:04;;;;;;;2.13;1.48;;;;;;;;;;5089355;28;20248;-80
2021/05/28 11:52:31;;;;;;;5.60;1.23;;;;;;;;;;5081386;28;20190;-79
2021/05/28 11:55:08;;;;;;;1.52;1.23;;;;;;;;;;5082910;28;20752;-80
2021/05/28 11:57:35;;;;;;;1.88;1.27;;;;;;;;;;5080680;28;20416;-81
2021/05/28 12:00:06;;;;;;;2.53;1.17;;;;;;;;;;5088811;28;20289;-80
2021/05/28 12:02:38;;;;;;;2.17;1.42;;;;;;;;;;5075729;28;20234;-80
2021/05/28 12:05:05;;;;;;;1.65;1.17;;;;;;;;;;5081860;28;20225;-81
2021/05/28 12:07:32;;;;;;;2.22;1.35;;;;;;;;;;5092977;28;20257;-80
2021/05/28 12:10:02;;;;;;;3.17;1.40;;;;;;;;;;5083688;28;20255;-79
2021/05/28 12:12:28;;;;;;;1.83;1.27;;;;;;;;;;5082047;28;20293;-79
2021/05/28 12:15:08;;;;;;;3.00;1.40;;;;;;;;;;5080048;28;20718;-79
2021/05/28 12:17:35;;;;;;;2.38;1.33;;;;;;;;;;5091612;28;20277;-79
2021/05/28 12:20:14;;;;;;;1.27;1.13;;;;;;;;;;5090842;28;20230;-80
2021/05/28 12:22:56;;;;;;;1.88;1.20;;;;;;;;;;5089175;28;20230;-79
2021/05/28 12:25:23;;;;;;;2.05;1.40;;;;;;;;;;5085758;28;20225;-79
2021/05/28 12:27:50;;;;;;;3.25;1.30;;;;;;;;;;5084449;28;20254;-79
2021/05/28 12:30:17;;;;;;;2.38;1.20;;;;;;;;;;5093078;28;20227;-79
2021/05/28 12:32:43;;;;;;;3.47;1.10;;;;;;;;;;5073047;28;20278;-79
2021/05/28 12:35:10;;;;;;;1.73;1.40;;;;;;;;;;5080290;28;20886;-79
2021/05/28 12:37:40;;;;;;;1.70;1.02;;;;;;;;;;5091594;28;20693;-80
2021/05/28 12:40:08;;;;;;;1.25;1.15;;;;;;;;;;5078378;28;20750;-80
2021/05/28 12:42:34;;;;;;;1.80;1.20;;;;;;;;;;5089551;28;20212;-79
2021/05/28 12:45:11;;;;;;;1.38;1.17;;;;;;;;;;5077477;28;20289;-80
2021/05/28 12:47:44;;;;;;;1.83;1.30;;;;;;;;;;5072385;28;20219;-81
2021/05/28 12:50:24;;;;;;;3.90;1.35;;;;;;;;;;5078613;28;20666;-80
2021/05/28 12:52:55;;;;;;;2.30;1.40;;;;;;;;;;5088218;28;20519;-80
2021/05/28 12:55:29;;;;;;;1.45;1.20;;;;;;;;;;5083810;28;20227;-80
2021/05/28 12:57:55;;;;;;;1.65;1.20;;;;;;;;;;5084156;28;20234;-80
2021/05/28 13:00:41;;;;;;;2.70;1.30;;;;;;;;;;5092795;28;20625;-80
2021/05/28 13:03:08;;;;;;;4.30;1.38;;;;;;;;;;5075850;28;20666;-81
2021/05/28 13:05:36;;;;;;;2.25;1.30;;;;;;;;;;5083601;28;20268;-81
2021/05/28 13:08:07;;;;;;;1.52;1.17;;;;;;;;;;5080041;28;20230;-80
2021/05/28 13:10:34;;;;;;;1.92;1.20;;;;;;;;;;5083786;28;20220;-80
2021/05/28 13:13:18;;;;;;;3.42;1.05;;;;;;;;;;5083340;28;20305;-80
2021/05/28 13:15:45;;;;;;;1.65;1.00;;;;;;;;;;5083677;28;20270;-80
2021/05/28 13:18:14;;;;;;;2.58;1.25;;;;;;;;;;5088110;28;20191;-81
2021/05/28 13:20:41;;;;;;;2.17;1.30;;;;;;;;;;5080199;28;20290;-81
2021/05/28 13:23:19;;;;;;;2.10;1.20;;;;;;;;;;5080698;28;20766;-81
2021/05/28 13:25:47;;;;;;;1.95;1.25;;;;;;;;;;5079703;28;20238;-81
2021/05/28 13:28:14;;;;;;;1.40;1.30;;;;;;;;;;5090767;28;20215;-81
2021/05/28 13:30:42;;;;;;;1.15;1.05;;;;;;;;;;5083613;28;20281;-81
2021/05/28 13:33:14;;;;;;;2.25;1.17;;;;;;;;;;5081647;28;20601;-80
2021/05/28 13:35:41;;;;;;;2.17;1.20;;;;;;;;;;5077931;28;20233;-81
2021/05/28 13:38:07;;;;;;;2.10;1.08;;;;;;;;;;5087962;28;20343;-81
2021/05/28 13:40:35;;;;;;;1.42;1.02;;;;;;;;;;5071763;28;20231;-81
2021/05/28 13:43:02;;;;;;;1.42;1.13;;;;;;;;;;5071462;28;20219;-81
2021/05/28 13:45:29;;;;;;;2.40;1.20;;;;;;;;;;5077068;28;20199;-81
2021/05/28 13:47:56;;;;;;;2.35;0.98;;;;;;;;;;5075426;28;20223;-81
2021/05/28 13:50:23;;;;;;;1.75;1.10;;;;;;;;;;5071363;28;20794;-81
2021/05/28 13:52:50;;;;;;;2.42;1.10;;;;;;;;;;5085576;28;20204;-81
2021/05/28 13:55:17;;;;;;;1.08;0.98;;;;;;;;;;5078463;28;20202;-79
2021/05/28 13:57:44;;;;;;;2.45;1.20;;;;;;;;;;5083621;28;20226;-80
2021/05/28 14:00:13;;;;;;;1.73;1.20;;;;;;;;;;5088112;28;20230;-80
2021/05/28 14:02:41;;;;;;;1.63;1.00;;;;;;;;;;5081739;28;20227;-80
2021/05/28 14:05:09;;;;;;;2.22;1.27;;;;;;;;;;5083268;28;20230;-81
2021/05/28 14:07:36;;;;;;;1.80;1.30;;;;;;;;;;5079171;28;20223;-80
2021/05/28 14:10:03;;;;;;;1.85;1.10;;;;;;;;;;5086806;28;20270;-80
2021/05/28 14:12:31;;;;;;;1.70;1.30;;;;;;;;;;5082048;28;20233;-80
2021/05/28 14:14:58;;;;;;;1.45;1.20;;;;;;;;;;5082567;28;20226;-79
2021/05/28 14:17:25;;;;;;;1.63;1.00;;;;;;;;;;5082149;28;20236;-79
2021/05/28 14:19:51;;;;;;;1.20;1.00;;;;;;;;;;5083204;28;20237;-80
2021/05/28 14:22:18;;;;;;;1.92;1.17;;;;;;;;;;5087482;28;20194;-79
2021/05/28 14:24:45;;;;;;;3.00;1.38;;;;;;;;;;5079359;28;20234;-79
2021/05/28 14:27:12;;;;;;;3.83;1.25;;;;;;;;;;5081287;28;20265;-79
2021/05/28 14:29:38;;;;;;;2.22;1.30;;;;;;;;;;5088106;28;20290;-79
2021/05/28 14:32:06;;;;;;;4.53;1.20;;;;;;;;;;5083224;28;20202;-79
2021/05/28 14:34:33;;;;;;;2.25;1.20;;;;;;;;;;5081229;28;20711;-78
2021/05/28 14:37:00;;;;;;;3.08;1.38;;;;;;;;;;5082601;28;20580;-78
2021/05/28 14:39:27;;;;;;;2.63;1.40;;;;;;;;;;5086849;28;20191;-77
2021/05/28 14:41:54;;;;;;;1.63;1.30;;;;;;;;;;5084904;28;20211;-78
2021/05/28 14:44:22;;;;;;;1.92;1.25;;;;;;;;;;5085222;28;20249;-77
2021/05/28 14:46:48;;;;;;;3.40;1.58;;;;;;;;;;5077976;28;20200;-78
2021/05/28 14:49:16;;;;;;;2.15;1.30;;;;;;;;;;5084938;28;20302;-78
2021/05/28 14:51:43;;;;;;;3.22;1.40;;;;;;;;;;5086970;28;20286;-78